sensor_id;sensor_type;location;lat;lon;timestamp;temperature;humidity
20698;DHT22;10508;50.956;4.640;2022-11-21T00:00:36;7.50;99.90
20698;DHT22;10508;50.956;4.640;2022-11-21T00:03:02;7.50;99.90
20698;DHT22;10508;50.956;4.640;2022-11-21T00:05:31;7.40;99.90
20698;DHT22;10508;50.956;4.640;2022-11-21T00:07:57;7.50;99.90
20698;DHT22;10508;50.956;4.640;2022-11-21T00:10:24;7.50;99.90
20698;DHT22;10508;50.956;4.640;2022-11-21T00:12:56;7.50;99.90
20698;DHT22;10508;50.956;4.640;2022-11-21T00:15:23;7.50;99.90
20698;DHT22;10508;50.956;4.640;2022-11-21T00:17:50;7.50;99.90
20698;DHT22;10508;50.956;4.640;2022-11-21T00:20:16;7.50;99.90
20698;DHT22;10508;50.956;4.640;2022-11-21T00:22:42;7.40;99.90
20698;DHT22;10508;50.956;4.640;2022-11-21T00:25:08;7.40;99.90
20698;DHT22;10508;50.956;4.640;2022-11-21T00:27:34;7.30;99.90
20698;DHT22;10508;50.956;4.640;2022-11-21T00:29:59;7.20;99.90
20698;DHT22;10508;50.956;4.640;2022-11-21T00:32:25;7.30;99.90
20698;DHT22;10508;50.956;4.640;2022-11-21T00:34:50;7.30;99.90
20698;DHT22;10508;50.956;4.640;2022-11-21T00:37:16;7.20;99.90
20698;DHT22;10508;50.956;4.640;2022-11-21T00:39:42;7.10;99.90
20698;DHT22;10508;50.956;4.640;2022-11-21T00:42:07;7.00;99.90
20698;DHT22;10508;50.956;4.640;2022-11-21T00:44:33;7.00;99.90
20698;DHT22;10508;50.956;4.640;2022-11-21T00:46:58;6.90;99.90
20698;DHT22;10508;50.956;4.640;2022-11-21T00:49:24;6.80;99.90
20698;DHT22;10508;50.956;4.640;2022-11-21T00:51:49;6.80;99.90
20698;DHT22;10508;50.956;4.640;2022-11-21T00:54:15;6.70;99.90
20698;DHT22;10508;50.956;4.640;2022-11-21T00:56:41;6.70;99.90
20698;DHT22;10508;50.956;4.640;2022-11-21T00:59:06;6.70;99.90
20698;DHT22;10508;50.956;4.640;2022-11-21T01:01:32;6.70;99.90
20698;DHT22;10508;50.956;4.640;2022-11-21T01:03:58;6.70;99.90
20698;DHT22;10508;50.956;4.640;2022-11-21T01:06:24;6.70;99.90
20698;DHT22;10508;50.956;4.640;2022-11-21T01:08:49;6.70;99.90
20698;DHT22;10508;50.956;4.640;2022-11-21T01:11:17;6.60;99.90
20698;DHT22;10508;50.956;4.640;2022-11-21T01:13:44;6.60;99.90
20698;DHT22;10508;50.956;4.640;2022-11-21T01:18:39;6.60;99.90
20698;DHT22;10508;50.956;4.640;2022-11-21T01:21:26;6.50;99.90
20698;DHT22;10508;50.956;4.640;2022-11-21T01:23:52;6.50;99.90
20698;DHT22;10508;50.956;4.640;2022-11-21T01:26:22;6.40;99.90
20698;DHT22;10508;50.956;4.640;2022-11-21T01:28:49;6.40;99.90
20698;DHT22;10508;50.956;4.640;2022-11-21T01:31:17;6.40;99.90
20698;DHT22;10508;50.956;4.640;2022-11-21T01:33:43;6.30;99.90
20698;DHT22;10508;50.956;4.640;2022-11-21T01:36:23;6.40;99.90
20698;DHT22;10508;50.956;4.640;2022-11-21T01:38:51;6.50;99.90
20698;DHT22;10508;50.956;4.640;2022-11-21T01:41:21;6.50;99.90
20698;DHT22;10508;50.956;4.640;2022-11-21T01:43:47;6.50;99.90
20698;DHT22;10508;50.956;4.640;2022-11-21T01:46:18;6.50;99.90
20698;DHT22;10508;50.956;4.640;2022-11-21T01:54:13;6.60;99.90
20698;DHT22;10508;50.956;4.640;2022-11-21T01:56:48;6.70;99.90
20698;DHT22;10508;50.956;4.640;2022-11-21T01:59:26;6.70;99.90
20698;DHT22;10508;50.956;4.640;2022-11-21T02:01:54;6.70;99.90
20698;DHT22;10508;50.956;4.640;2022-11-21T02:04:21;6.70;99.90
20698;DHT22;10508;50.956;4.640;2022-11-21T02:06:50;6.80;99.90
20698;DHT22;10508;50.956;4.640;2022-11-21T02:09:16;6.80;99.90
20698;DHT22;10508;50.956;4.640;2022-11-21T02:11:49;6.80;99.90
20698;DHT22;10508;50.956;4.640;2022-11-21T02:14:15;6.80;99.90
20698;DHT22;10508;50.956;4.640;2022-11-21T02:16:41;6.90;99.90
20698;DHT22;10508;50.956;4.640;2022-11-21T02:19:22;6.90;99.90
20698;DHT22;10508;50.956;4.640;2022-11-21T02:25:06;6.90;99.90
20698;DHT22;10508;50.956;4.640;2022-11-21T02:27:33;6.90;99.90
20698;DHT22;10508;50.956;4.640;2022-11-21T02:30:00;6.90;99.90
20698;DHT22;10508;50.956;4.640;2022-11-21T02:32:41;6.90;99.90
20698;DHT22;10508;50.956;4.640;2022-11-21T02:35:12;7.00;99.90
20698;DHT22;10508;50.956;4.640;2022-11-21T02:37:38;7.00;99.90
20698;DHT22;10508;50.956;4.640;2022-11-21T02:40:22;7.00;99.90
20698;DHT22;10508;50.956;4.640;2022-11-21T02:43:21;6.90;99.90
20698;DHT22;10508;50.956;4.640;2022-11-21T02:45:47;7.00;99.90
20698;DHT22;10508;50.956;4.640;2022-11-21T02:48:13;7.00;99.90
20698;DHT22;10508;50.956;4.640;2022-11-21T02:50:41;7.00;99.90
20698;DHT22;10508;50.956;4.640;2022-11-21T02:53:09;7.00;99.90
20698;DHT22;10508;50.956;4.640;2022-11-21T02:55:35;7.10;99.90
20698;DHT22;10508;50.956;4.640;2022-11-21T02:58:01;7.10;99.90
20698;DHT22;10508;50.956;4.640;2022-11-21T03:00:26;7.10;99.90
20698;DHT22;10508;50.956;4.640;2022-11-21T03:02:52;7.10;99.90
20698;DHT22;10508;50.956;4.640;2022-11-21T03:05:19;7.20;99.90
20698;DHT22;10508;50.956;4.640;2022-11-21T03:07:45;7.20;99.90
20698;DHT22;10508;50.956;4.640;2022-11-21T03:10:11;7.10;99.90
20698;DHT22;10508;50.956;4.640;2022-11-21T03:12:38;7.10;99.90
20698;DHT22;10508;50.956;4.640;2022-11-21T03:15:05;7.10;99.90
20698;DHT22;10508;50.956;4.640;2022-11-21T03:17:32;7.10;99.90
20698;DHT22;10508;50.956;4.640;2022-11-21T03:19:57;7.20;99.90
20698;DHT22;10508;50.956;4.640;2022-11-21T03:22:23;7.20;99.90
20698;DHT22;10508;50.956;4.640;2022-11-21T03:24:49;7.20;99.90
20698;DHT22;10508;50.956;4.640;2022-11-21T03:27:14;7.30;99.90
20698;DHT22;10508;50.956;4.640;2022-11-21T03:29:40;7.20;99.90
20698;DHT22;10508;50.956;4.640;2022-11-21T03:32:05;7.20;99.90
20698;DHT22;10508;50.956;4.640;2022-11-21T03:34:31;7.10;99.90
20698;DHT22;10508;50.956;4.640;2022-11-21T03:36:57;7.10;99.90
20698;DHT22;10508;50.956;4.640;2022-11-21T03:39:22;7.20;99.90
20698;DHT22;10508;50.956;4.640;2022-11-21T03:41:48;7.20;99.90
20698;DHT22;10508;50.956;4.640;2022-11-21T03:44:14;7.20;99.90
20698;DHT22;10508;50.956;4.640;2022-11-21T03:46:42;7.20;99.90
20698;DHT22;10508;50.956;4.640;2022-11-21T03:49:08;7.20;99.90
20698;DHT22;10508;50.956;4.640;2022-11-21T03:51:34;7.20;99.90
20698;DHT22;10508;50.956;4.640;2022-11-21T03:54:00;7.20;99.90
20698;DHT22;10508;50.956;4.640;2022-11-21T03:56:26;7.20;99.90
20698;DHT22;10508;50.956;4.640;2022-11-21T03:58:52;7.10;99.90
20698;DHT22;10508;50.956;4.640;2022-11-21T04:01:19;7.10;99.90
20698;DHT22;10508;50.956;4.640;2022-11-21T04:03:45;7.10;99.90
20698;DHT22;10508;50.956;4.640;2022-11-21T04:06:13;7.10;99.90
20698;DHT22;10508;50.956;4.640;2022-11-21T04:08:39;7.10;99.90
20698;DHT22;10508;50.956;4.640;2022-11-21T04:11:05;7.00;99.90
20698;DHT22;10508;50.956;4.640;2022-11-21T04:13:31;7.00;99.90
20698;DHT22;10508;50.956;4.640;2022-11-21T04:15:57;7.00;99.90
20698;DHT22;10508;50.956;4.640;2022-11-21T04:18:22;7.00;99.90
20698;DHT22;10508;50.956;4.640;2022-11-21T04:20:48;7.10;99.90
20698;DHT22;10508;50.956;4.640;2022-11-21T04:23:14;7.10;99.90
20698;DHT22;10508;50.956;4.640;2022-11-21T04:25:40;7.00;99.90
20698;DHT22;10508;50.956;4.640;2022-11-21T04:28:06;7.00;99.90
20698;DHT22;10508;50.956;4.640;2022-11-21T04:30:33;7.00;99.90
20698;DHT22;10508;50.956;4.640;2022-11-21T04:32:59;7.10;99.90
20698;DHT22;10508;50.956;4.640;2022-11-21T04:35:25;7.10;99.90
20698;DHT22;10508;50.956;4.640;2022-11-21T04:37:51;7.10;99.90
20698;DHT22;10508;50.956;4.640;2022-11-21T04:40:17;7.10;99.90
20698;DHT22;10508;50.956;4.640;2022-11-21T04:42:46;7.10;99.90
20698;DHT22;10508;50.956;4.640;2022-11-21T04:45:13;7.00;99.90
20698;DHT22;10508;50.956;4.640;2022-11-21T04:47:42;6.90;99.90
20698;DHT22;10508;50.956;4.640;2022-11-21T04:50:10;7.00;99.90
20698;DHT22;10508;50.956;4.640;2022-11-21T04:52:36;7.00;99.90
20698;DHT22;10508;50.956;4.640;2022-11-21T04:55:02;6.90;99.90
20698;DHT22;10508;50.956;4.640;2022-11-21T04:57:29;6.90;99.90
20698;DHT22;10508;50.956;4.640;2022-11-21T04:59:55;6.80;99.90
20698;DHT22;10508;50.956;4.640;2022-11-21T05:02:21;6.80;99.90
20698;DHT22;10508;50.956;4.640;2022-11-21T05:04:46;6.80;99.90
20698;DHT22;10508;50.956;4.640;2022-11-21T05:07:12;6.90;99.90
20698;DHT22;10508;50.956;4.640;2022-11-21T05:09:38;6.90;99.90
20698;DHT22;10508;50.956;4.640;2022-11-21T05:12:04;7.00;99.90
20698;DHT22;10508;50.956;4.640;2022-11-21T05:14:48;6.90;99.90
20698;DHT22;10508;50.956;4.640;2022-11-21T05:17:14;6.90;99.90
20698;DHT22;10508;50.956;4.640;2022-11-21T05:19:39;6.90;99.90
20698;DHT22;10508;50.956;4.640;2022-11-21T05:22:05;6.90;99.90
20698;DHT22;10508;50.956;4.640;2022-11-21T05:24:31;6.90;99.90
20698;DHT22;10508;50.956;4.640;2022-11-21T05:26:56;6.90;99.90
20698;DHT22;10508;50.956;4.640;2022-11-21T05:29:22;6.90;99.90
20698;DHT22;10508;50.956;4.640;2022-11-21T05:31:48;6.90;99.90
20698;DHT22;10508;50.956;4.640;2022-11-21T05:34:13;7.00;99.90
20698;DHT22;10508;50.956;4.640;2022-11-21T05:36:39;6.90;99.90
20698;DHT22;10508;50.956;4.640;2022-11-21T05:39:04;6.90;99.90
20698;DHT22;10508;50.956;4.640;2022-11-21T05:41:30;6.90;99.90
20698;DHT22;10508;50.956;4.640;2022-11-21T05:43:56;6.90;99.90
20698;DHT22;10508;50.956;4.640;2022-11-21T05:46:23;6.90;99.90
20698;DHT22;10508;50.956;4.640;2022-11-21T05:48:51;6.90;99.90
20698;DHT22;10508;50.956;4.640;2022-11-21T05:51:17;6.80;99.90
20698;DHT22;10508;50.956;4.640;2022-11-21T05:53:43;6.80;99.90
20698;DHT22;10508;50.956;4.640;2022-11-21T05:56:14;6.70;99.90
20698;DHT22;10508;50.956;4.640;2022-11-21T05:58:41;6.70;99.90
20698;DHT22;10508;50.956;4.640;2022-11-21T06:01:08;6.70;99.90
20698;DHT22;10508;50.956;4.640;2022-11-21T06:03:37;6.70;99.90
20698;DHT22;10508;50.956;4.640;2022-11-21T06:06:11;6.70;99.90
20698;DHT22;10508;50.956;4.640;2022-11-21T06:08:39;6.70;99.90
20698;DHT22;10508;50.956;4.640;2022-11-21T06:11:06;6.70;99.90
20698;DHT22;10508;50.956;4.640;2022-11-21T06:13:32;6.60;99.90
20698;DHT22;10508;50.956;4.640;2022-11-21T06:16:12;6.60;99.90
20698;DHT22;10508;50.956;4.640;2022-11-21T06:18:40;6.60;99.90
20698;DHT22;10508;50.956;4.640;2022-11-21T06:21:27;6.60;99.90
20698;DHT22;10508;50.956;4.640;2022-11-21T06:23:55;6.60;99.90
20698;DHT22;10508;50.956;4.640;2022-11-21T06:26:23;6.50;99.90
20698;DHT22;10508;50.956;4.640;2022-11-21T06:28:49;6.60;99.90
20698;DHT22;10508;50.956;4.640;2022-11-21T06:31:22;6.50;99.90
20698;DHT22;10508;50.956;4.640;2022-11-21T06:33:53;6.40;99.90
20698;DHT22;10508;50.956;4.640;2022-11-21T06:36:19;6.30;99.90
20698;DHT22;10508;50.956;4.640;2022-11-21T06:38:45;6.30;99.90
20698;DHT22;10508;50.956;4.640;2022-11-21T06:41:12;6.20;99.90
20698;DHT22;10508;50.956;4.640;2022-11-21T06:43:39;6.20;99.90
20698;DHT22;10508;50.956;4.640;2022-11-21T06:46:05;6.20;99.90
20698;DHT22;10508;50.956;4.640;2022-11-21T06:48:32;6.10;99.90
20698;DHT22;10508;50.956;4.640;2022-11-21T06:51:11;6.10;99.90
20698;DHT22;10508;50.956;4.640;2022-11-21T06:53:37;6.10;99.90
20698;DHT22;10508;50.956;4.640;2022-11-21T06:56:03;6.10;99.90
20698;DHT22;10508;50.956;4.640;2022-11-21T06:58:30;6.00;99.90
20698;DHT22;10508;50.956;4.640;2022-11-21T07:00:56;6.00;99.90
20698;DHT22;10508;50.956;4.640;2022-11-21T07:03:22;6.00;99.90
20698;DHT22;10508;50.956;4.640;2022-11-21T07:05:48;5.90;99.90
20698;DHT22;10508;50.956;4.640;2022-11-21T07:08:14;5.80;99.90
20698;DHT22;10508;50.956;4.640;2022-11-21T07:10:40;5.90;99.90
20698;DHT22;10508;50.956;4.640;2022-11-21T07:13:06;5.90;99.90
20698;DHT22;10508;50.956;4.640;2022-11-21T07:15:52;5.90;99.90
20698;DHT22;10508;50.956;4.640;2022-11-21T07:18:19;5.90;99.90
20698;DHT22;10508;50.956;4.640;2022-11-21T07:20:45;5.80;99.90
20698;DHT22;10508;50.956;4.640;2022-11-21T07:23:11;5.80;99.90
20698;DHT22;10508;50.956;4.640;2022-11-21T07:25:37;5.70;99.90
20698;DHT22;10508;50.956;4.640;2022-11-21T07:28:05;5.70;99.90
20698;DHT22;10508;50.956;4.640;2022-11-21T07:30:31;5.70;99.90
20698;DHT22;10508;50.956;4.640;2022-11-21T07:32:58;5.70;99.90
20698;DHT22;10508;50.956;4.640;2022-11-21T07:35:25;5.70;99.90
20698;DHT22;10508;50.956;4.640;2022-11-21T07:37:50;5.70;99.90
20698;DHT22;10508;50.956;4.640;2022-11-21T07:40:16;5.60;99.90
20698;DHT22;10508;50.956;4.640;2022-11-21T07:42:42;5.60;99.90
20698;DHT22;10508;50.956;4.640;2022-11-21T07:45:09;5.60;99.90
20698;DHT22;10508;50.956;4.640;2022-11-21T07:47:34;5.60;99.90
20698;DHT22;10508;50.956;4.640;2022-11-21T07:50:00;5.60;99.90
20698;DHT22;10508;50.956;4.640;2022-11-21T07:52:25;5.70;99.90
20698;DHT22;10508;50.956;4.640;2022-11-21T07:54:57;5.70;99.90
20698;DHT22;10508;50.956;4.640;2022-11-21T07:57:23;5.80;99.90
20698;DHT22;10508;50.956;4.640;2022-11-21T07:59:49;5.80;99.90
20698;DHT22;10508;50.956;4.640;2022-11-21T08:02:20;5.80;99.90
20698;DHT22;10508;50.956;4.640;2022-11-21T08:04:46;5.90;99.90
20698;DHT22;10508;50.956;4.640;2022-11-21T08:07:13;5.90;99.90
20698;DHT22;10508;50.956;4.640;2022-11-21T08:09:38;6.00;99.90
20698;DHT22;10508;50.956;4.640;2022-11-21T08:12:04;6.00;99.90
20698;DHT22;10508;50.956;4.640;2022-11-21T08:14:30;5.90;99.90
20698;DHT22;10508;50.956;4.640;2022-11-21T08:16:55;6.00;99.90
20698;DHT22;10508;50.956;4.640;2022-11-21T08:19:21;6.00;99.90
20698;DHT22;10508;50.956;4.640;2022-11-21T08:21:46;6.10;99.90
20698;DHT22;10508;50.956;4.640;2022-11-21T08:24:12;6.10;99.90
20698;DHT22;10508;50.956;4.640;2022-11-21T08:26:40;6.10;99.90
20698;DHT22;10508;50.956;4.640;2022-11-21T08:29:06;6.20;99.90
20698;DHT22;10508;50.956;4.640;2022-11-21T08:31:31;6.30;99.90
20698;DHT22;10508;50.956;4.640;2022-11-21T08:33:57;6.40;99.90
20698;DHT22;10508;50.956;4.640;2022-11-21T08:36:23;6.30;99.90
20698;DHT22;10508;50.956;4.640;2022-11-21T08:38:49;6.30;99.90
20698;DHT22;10508;50.956;4.640;2022-11-21T08:41:15;6.40;99.90
20698;DHT22;10508;50.956;4.640;2022-11-21T08:43:59;6.40;99.90
20698;DHT22;10508;50.956;4.640;2022-11-21T08:46:24;6.40;99.90
20698;DHT22;10508;50.956;4.640;2022-11-21T08:48:54;6.40;99.90
20698;DHT22;10508;50.956;4.640;2022-11-21T08:51:21;6.50;99.90
20698;DHT22;10508;50.956;4.640;2022-11-21T08:53:47;6.60;99.90
20698;DHT22;10508;50.956;4.640;2022-11-21T08:56:13;6.70;99.90
20698;DHT22;10508;50.956;4.640;2022-11-21T08:58:39;6.60;99.90
20698;DHT22;10508;50.956;4.640;2022-11-21T09:01:04;6.60;99.90
20698;DHT22;10508;50.956;4.640;2022-11-21T09:03:30;6.70;99.90
20698;DHT22;10508;50.956;4.640;2022-11-21T09:05:56;6.70;99.90
20698;DHT22;10508;50.956;4.640;2022-11-21T09:08:22;6.80;99.90
20698;DHT22;10508;50.956;4.640;2022-11-21T09:10:48;6.80;99.90
20698;DHT22;10508;50.956;4.640;2022-11-21T09:13:13;7.10;99.90
20698;DHT22;10508;50.956;4.640;2022-11-21T09:15:39;7.30;99.90
20698;DHT22;10508;50.956;4.640;2022-11-21T09:18:23;7.40;99.90
20698;DHT22;10508;50.956;4.640;2022-11-21T09:20:49;7.60;99.90
20698;DHT22;10508;50.956;4.640;2022-11-21T09:23:16;7.70;99.90
20698;DHT22;10508;50.956;4.640;2022-11-21T09:25:42;8.00;99.90
20698;DHT22;10508;50.956;4.640;2022-11-21T09:28:10;8.30;99.90
20698;DHT22;10508;50.956;4.640;2022-11-21T09:30:36;8.50;99.90
20698;DHT22;10508;50.956;4.640;2022-11-21T09:33:07;8.90;99.90
20698;DHT22;10508;50.956;4.640;2022-11-21T09:35:34;9.30;99.90
20698;DHT22;10508;50.956;4.640;2022-11-21T09:37:59;9.70;99.90
20698;DHT22;10508;50.956;4.640;2022-11-21T09:40:25;10.10;99.90
20698;DHT22;10508;50.956;4.640;2022-11-21T09:45:50;9.60;99.90
20698;DHT22;10508;50.956;4.640;2022-11-21T09:48:22;9.40;99.90
20698;DHT22;10508;50.956;4.640;2022-11-21T09:50:53;9.30;99.90
20698;DHT22;10508;50.956;4.640;2022-11-21T09:53:33;9.00;99.90
20698;DHT22;10508;50.956;4.640;2022-11-21T09:56:09;9.00;99.90
20698;DHT22;10508;50.956;4.640;2022-11-21T10:01:27;8.60;99.90
20698;DHT22;10508;50.956;4.640;2022-11-21T10:03:54;8.50;99.90
20698;DHT22;10508;50.956;4.640;2022-11-21T10:06:31;8.30;99.90
20698;DHT22;10508;50.956;4.640;2022-11-21T10:20:02;8.30;99.90
20698;DHT22;10508;50.956;4.640;2022-11-21T10:25:24;8.50;99.90
20698;DHT22;10508;50.956;4.640;2022-11-21T10:27:58;8.70;99.90
20698;DHT22;10508;50.956;4.640;2022-11-21T10:30:24;8.80;99.90
20698;DHT22;10508;50.956;4.640;2022-11-21T10:33:01;8.60;99.90
20698;DHT22;10508;50.956;4.640;2022-11-21T10:35:56;8.50;99.90
20698;DHT22;10508;50.956;4.640;2022-11-21T10:38:25;8.50;99.90
20698;DHT22;10508;50.956;4.640;2022-11-21T10:41:01;8.50;99.90
20698;DHT22;10508;50.956;4.640;2022-11-21T10:44:04;8.50;99.90
20698;DHT22;10508;50.956;4.640;2022-11-21T10:47:22;8.50;99.90
20698;DHT22;10508;50.956;4.640;2022-11-21T10:53:09;8.30;99.90
20698;DHT22;10508;50.956;4.640;2022-11-21T10:56:10;8.20;99.90
20698;DHT22;10508;50.956;4.640;2022-11-21T10:58:47;8.20;99.90
20698;DHT22;10508;50.956;4.640;2022-11-21T11:06:42;8.20;99.90
20698;DHT22;10508;50.956;4.640;2022-11-21T11:11:50;8.10;99.90
20698;DHT22;10508;50.956;4.640;2022-11-21T11:14:27;8.20;99.90
20698;DHT22;10508;50.956;4.640;2022-11-21T11:16:54;8.20;99.90
20698;DHT22;10508;50.956;4.640;2022-11-21T11:19:28;8.30;99.90
20698;DHT22;10508;50.956;4.640;2022-11-21T11:21:54;8.40;99.90
20698;DHT22;10508;50.956;4.640;2022-11-21T11:24:23;8.40;99.90
20698;DHT22;10508;50.956;4.640;2022-11-21T11:27:01;8.50;99.90
20698;DHT22;10508;50.956;4.640;2022-11-21T11:29:48;8.60;99.90
20698;DHT22;10508;50.956;4.640;2022-11-21T11:32:17;8.70;99.90
20698;DHT22;10508;50.956;4.640;2022-11-21T11:35:13;8.70;99.90
20698;DHT22;10508;50.956;4.640;2022-11-21T11:37:57;8.80;99.90
20698;DHT22;10508;50.956;4.640;2022-11-21T11:46:33;8.70;99.90
20698;DHT22;10508;50.956;4.640;2022-11-21T11:49:27;8.60;99.90
20698;DHT22;10508;50.956;4.640;2022-11-21T11:52:00;8.60;99.90
20698;DHT22;10508;50.956;4.640;2022-11-21T11:54:39;8.50;99.90
20698;DHT22;10508;50.956;4.640;2022-11-21T11:57:08;8.50;99.90
20698;DHT22;10508;50.956;4.640;2022-11-21T11:59:43;8.50;99.90
20698;DHT22;10508;50.956;4.640;2022-11-21T12:02:28;8.60;99.90
20698;DHT22;10508;50.956;4.640;2022-11-21T12:05:03;8.60;99.90
20698;DHT22;10508;50.956;4.640;2022-11-21T12:07:41;8.70;99.90
20698;DHT22;10508;50.956;4.640;2022-11-21T12:12:55;8.70;99.90
20698;DHT22;10508;50.956;4.640;2022-11-21T12:15:30;8.70;99.90
20698;DHT22;10508;50.956;4.640;2022-11-21T12:23:24;8.70;99.90
20698;DHT22;10508;50.956;4.640;2022-11-21T12:31:57;8.70;99.90
20698;DHT22;10508;50.956;4.640;2022-11-21T12:57:10;9.00;99.90
20698;DHT22;10508;50.956;4.640;2022-11-21T13:05:00;8.90;99.90
20698;DHT22;10508;50.956;4.640;2022-11-21T13:07:28;9.00;99.90
20698;DHT22;10508;50.956;4.640;2022-11-21T13:09:57;9.00;99.90
20698;DHT22;10508;50.956;4.640;2022-11-21T13:15:16;9.00;99.90
20698;DHT22;10508;50.956;4.640;2022-11-21T13:18:39;9.10;99.90
20698;DHT22;10508;50.956;4.640;2022-11-21T13:20:47;9.10;99.90
20698;DHT22;10508;50.956;4.640;2022-11-21T13:23:40;9.20;99.90
20698;DHT22;10508;50.956;4.640;2022-11-21T13:29:13;9.30;99.90
20698;DHT22;10508;50.956;4.640;2022-11-21T13:31:39;9.30;99.90
20698;DHT22;10508;50.956;4.640;2022-11-21T13:36:57;9.30;99.90
20698;DHT22;10508;50.956;4.640;2022-11-21T13:39:29;9.30;99.90
20698;DHT22;10508;50.956;4.640;2022-11-21T13:41:59;9.30;99.90
20698;DHT22;10508;50.956;4.640;2022-11-21T13:44:44;9.30;99.90
20698;DHT22;10508;50.956;4.640;2022-11-21T13:52:46;9.20;99.90
20698;DHT22;10508;50.956;4.640;2022-11-21T13:58:25;9.20;99.90
20698;DHT22;10508;50.956;4.640;2022-11-21T14:06:39;9.20;99.90
20698;DHT22;10508;50.956;4.640;2022-11-21T14:09:35;9.20;99.90
20698;DHT22;10508;50.956;4.640;2022-11-21T14:23:00;9.20;99.90
20698;DHT22;10508;50.956;4.640;2022-11-21T14:28:13;9.20;99.90
20698;DHT22;10508;50.956;4.640;2022-11-21T14:30:42;9.20;99.90
20698;DHT22;10508;50.956;4.640;2022-11-21T14:33:28;9.10;99.90
20698;DHT22;10508;50.956;4.640;2022-11-21T14:38:26;9.20;99.90
20698;DHT22;10508;50.956;4.640;2022-11-21T14:46:26;9.20;99.90
20698;DHT22;10508;50.956;4.640;2022-11-21T14:48:52;9.20;99.90
20698;DHT22;10508;50.956;4.640;2022-11-21T14:51:22;9.10;99.90
20698;DHT22;10508;50.956;4.640;2022-11-21T14:53:49;9.10;99.90
20698;DHT22;10508;50.956;4.640;2022-11-21T14:56:32;9.10;99.90
20698;DHT22;10508;50.956;4.640;2022-11-21T14:59:01;9.10;99.90
20698;DHT22;10508;50.956;4.640;2022-11-21T15:01:29;9.20;99.90
20698;DHT22;10508;50.956;4.640;2022-11-21T15:03:55;9.20;99.90
20698;DHT22;10508;50.956;4.640;2022-11-21T15:06:21;9.20;99.90
20698;DHT22;10508;50.956;4.640;2022-11-21T15:08:47;9.20;99.90
20698;DHT22;10508;50.956;4.640;2022-11-21T15:11:14;9.20;99.90
20698;DHT22;10508;50.956;4.640;2022-11-21T15:13:41;9.20;99.90
20698;DHT22;10508;50.956;4.640;2022-11-21T15:16:08;9.20;99.90
20698;DHT22;10508;50.956;4.640;2022-11-21T15:18:34;9.20;99.90
20698;DHT22;10508;50.956;4.640;2022-11-21T15:21:03;9.30;99.90
20698;DHT22;10508;50.956;4.640;2022-11-21T15:23:36;9.30;99.90
20698;DHT22;10508;50.956;4.640;2022-11-21T15:26:31;9.30;99.90
20698;DHT22;10508;50.956;4.640;2022-11-21T15:29:20;9.20;99.90
20698;DHT22;10508;50.956;4.640;2022-11-21T15:34:30;9.20;99.90
20698;DHT22;10508;50.956;4.640;2022-11-21T15:37:13;9.20;99.90
20698;DHT22;10508;50.956;4.640;2022-11-21T15:39:43;9.20;99.90
20698;DHT22;10508;50.956;4.640;2022-11-21T15:44:58;9.20;99.90
20698;DHT22;10508;50.956;4.640;2022-11-21T15:47:24;9.20;99.90
20698;DHT22;10508;50.956;4.640;2022-11-21T15:49:50;9.20;99.90
20698;DHT22;10508;50.956;4.640;2022-11-21T15:52:16;9.20;99.90
20698;DHT22;10508;50.956;4.640;2022-11-21T15:54:41;9.20;99.90
20698;DHT22;10508;50.956;4.640;2022-11-21T15:57:08;9.20;99.90
20698;DHT22;10508;50.956;4.640;2022-11-21T15:59:34;9.20;99.90
20698;DHT22;10508;50.956;4.640;2022-11-21T16:01:59;9.20;99.90
20698;DHT22;10508;50.956;4.640;2022-11-21T16:04:25;9.20;99.90
20698;DHT22;10508;50.956;4.640;2022-11-21T16:06:54;9.20;99.90
20698;DHT22;10508;50.956;4.640;2022-11-21T16:09:20;9.20;99.90
20698;DHT22;10508;50.956;4.640;2022-11-21T16:11:45;9.10;99.90
20698;DHT22;10508;50.956;4.640;2022-11-21T16:14:13;9.10;99.90
20698;DHT22;10508;50.956;4.640;2022-11-21T16:16:41;9.10;99.90
20698;DHT22;10508;50.956;4.640;2022-11-21T16:19:09;9.10;99.90
20698;DHT22;10508;50.956;4.640;2022-11-21T16:21:35;9.10;99.90
20698;DHT22;10508;50.956;4.640;2022-11-21T16:24:01;9.10;99.90
20698;DHT22;10508;50.956;4.640;2022-11-21T16:26:27;9.10;99.90
20698;DHT22;10508;50.956;4.640;2022-11-21T16:28:57;9.00;99.90
20698;DHT22;10508;50.956;4.640;2022-11-21T16:31:28;9.10;99.90
20698;DHT22;10508;50.956;4.640;2022-11-21T16:33:54;9.00;99.90
20698;DHT22;10508;50.956;4.640;2022-11-21T16:36:22;9.00;99.90
20698;DHT22;10508;50.956;4.640;2022-11-21T16:38:48;9.00;99.90
20698;DHT22;10508;50.956;4.640;2022-11-21T16:41:16;9.00;99.90
20698;DHT22;10508;50.956;4.640;2022-11-21T16:43:47;9.00;99.90
20698;DHT22;10508;50.956;4.640;2022-11-21T16:46:13;9.00;99.90
20698;DHT22;10508;50.956;4.640;2022-11-21T16:48:38;8.90;99.90
20698;DHT22;10508;50.956;4.640;2022-11-21T16:51:12;8.90;99.90
20698;DHT22;10508;50.956;4.640;2022-11-21T16:53:39;8.90;99.90
20698;DHT22;10508;50.956;4.640;2022-11-21T16:56:05;8.90;99.90
20698;DHT22;10508;50.956;4.640;2022-11-21T16:58:31;8.90;99.90
20698;DHT22;10508;50.956;4.640;2022-11-21T17:00:56;8.90;99.90
20698;DHT22;10508;50.956;4.640;2022-11-21T17:03:22;8.90;99.90
20698;DHT22;10508;50.956;4.640;2022-11-21T17:05:57;8.90;99.90
20698;DHT22;10508;50.956;4.640;2022-11-21T17:08:23;8.90;99.90
20698;DHT22;10508;50.956;4.640;2022-11-21T17:10:49;8.90;99.90
20698;DHT22;10508;50.956;4.640;2022-11-21T17:13:15;8.90;99.90
20698;DHT22;10508;50.956;4.640;2022-11-21T17:15:41;8.90;99.90
20698;DHT22;10508;50.956;4.640;2022-11-21T17:18:06;8.80;99.90
20698;DHT22;10508;50.956;4.640;2022-11-21T17:20:32;8.70;99.90
20698;DHT22;10508;50.956;4.640;2022-11-21T17:22:57;8.80;99.90
20698;DHT22;10508;50.956;4.640;2022-11-21T17:25:25;8.70;99.90
20698;DHT22;10508;50.956;4.640;2022-11-21T17:27:51;8.70;99.90
20698;DHT22;10508;50.956;4.640;2022-11-21T17:30:17;8.70;99.90
20698;DHT22;10508;50.956;4.640;2022-11-21T17:32:42;8.70;99.90
20698;DHT22;10508;50.956;4.640;2022-11-21T17:35:08;8.60;99.90
20698;DHT22;10508;50.956;4.640;2022-11-21T17:37:35;8.60;99.90
20698;DHT22;10508;50.956;4.640;2022-11-21T17:40:01;8.60;99.90
20698;DHT22;10508;50.956;4.640;2022-11-21T17:42:27;8.60;99.90
20698;DHT22;10508;50.956;4.640;2022-11-21T17:44:53;8.60;99.90
20698;DHT22;10508;50.956;4.640;2022-11-21T17:47:18;8.50;99.90
20698;DHT22;10508;50.956;4.640;2022-11-21T17:49:44;8.50;99.90
20698;DHT22;10508;50.956;4.640;2022-11-21T17:52:10;8.50;99.90
20698;DHT22;10508;50.956;4.640;2022-11-21T17:54:36;8.50;99.90
20698;DHT22;10508;50.956;4.640;2022-11-21T17:57:01;8.50;99.90
20698;DHT22;10508;50.956;4.640;2022-11-21T17:59:27;8.40;99.90
20698;DHT22;10508;50.956;4.640;2022-11-21T18:01:54;8.40;99.90
20698;DHT22;10508;50.956;4.640;2022-11-21T18:04:20;8.40;99.90
20698;DHT22;10508;50.956;4.640;2022-11-21T18:06:46;8.40;99.90
20698;DHT22;10508;50.956;4.640;2022-11-21T18:09:11;8.40;99.90
20698;DHT22;10508;50.956;4.640;2022-11-21T18:11:38;8.30;99.90
20698;DHT22;10508;50.956;4.640;2022-11-21T18:14:04;8.30;99.90
20698;DHT22;10508;50.956;4.640;2022-11-21T18:16:31;8.30;99.90